• Join FlightAware (Why Join?)
  • Login
  • US Flag 
12:32PM EST


 

Airport Tracker/Info


-or-


 

Live Flight TrackerFlight Track Log ✈ EJA221 ✈ 11-Jul-2013 ✈ KSUS - KASE

Flight Track Log - Related Links

Times and Time Zones

All times are in EDT time to prevent confusion due to time zone crossing. See the EJA221 flight status page for this flight to view local times or setup timezone preferences in your user account.

Time Position Orientation Groundspeed Altitude Reporting Facility
EDT Latitude Longitude Course Direction KTS MPH feet Rate Location/Type
08:29PM 38.6333 -90.6000 278° West 213 245 2,800  Level Gateway (St. Louis) TRACON
08:30PM 38.6000 -90.6667 237° Southwest 254 292 4,300 2,820 Climbing Gateway (St. Louis) TRACON
08:32PM 38.6911 -90.7164 337° Northwest 269 310 9,300 3,000 Climbing Kansas City Center
08:33PM 38.7681 -90.7403 346° North 303 349 11,300 1,980 Climbing Kansas City Center
08:34PM 38.8197 -90.8444 303° West 340 391 13,500 2,220 Climbing Kansas City Center
08:35PM 38.7505 -91.5286 278° West  Level Estimated
08:35PM 38.8725 -90.9531 302° West 356 410 16,000  Level Kansas City Center
08:36PM 38.9250 -91.0636 301° West 361 415 18,400 2,220 Climbing Kansas City Center
08:37PM 38.9731 -91.1803 298° West 369 425 20,600 2,100 Climbing Kansas City Center
08:38PM 38.9969 -91.3458 281° West 389 448 22,800 2,100 Climbing Kansas City Center
08:39PM 39.0194 -91.4856 282° West 397 457 25,000 1,980 Climbing Kansas City Center
08:40PM 39.0403 -91.6272 281° West 403 464 27,000 1,800 Climbing Kansas City Center
08:41PM 39.0619 -91.7814 280° West 414 476 28,700 1,620 Climbing Kansas City Center
08:42PM 39.0847 -91.9317 281° West 426 490 30,400 1,860 Climbing Kansas City Center
08:43PM 39.1075 -92.0847 281° West 432 497 32,600 2,160 Climbing Kansas City Center
08:44PM 39.1208 -92.2339 277° West 425 489 34,900 1,980 Climbing Kansas City Center
08:45PM 39.1325 -92.3814 276° West 418 481 36,800 1,980 Climbing Kansas City Center
08:46PM 39.1453 -92.5553 275° West 411 473 39,000 1,560 Climbing Kansas City Center
08:47PM 39.1564 -92.6983 276° West 406 467 40,000 480 Climbing Kansas City Center
08:48PM 39.1653 -92.8278 275° West 406 467 40,000  Level Kansas City Center
08:49PM 39.1764 -92.9797 275° West 418 481 40,000  Level Kansas City Center
08:50PM 39.1883 -93.1603 275° West 423 487 40,000  Level Kansas City Center
08:51PM 39.1992 -93.3133 275° West 428 493 40,000  Level Kansas City Center
08:52PM 39.2086 -93.4675 275° West 430 495 40,000  Level Kansas City Center
08:53PM 39.2203 -93.6383 275° West 429 494 40,000  Level Kansas City Center
08:54PM 39.2297 -93.7842 275° West 427 491 40,000  Level Kansas City Center
08:55PM 39.2383 -93.9322 274° West 432 497 40,000  Level Kansas City Center
08:56PM 39.2497 -94.1056 275° West 433 498 40,000  Level Kansas City Center
08:57PM 39.2581 -94.2539 274° West 433 498 40,000  Level Kansas City Center
08:58PM 39.2683 -94.4278 274° West 435 501 40,000  Level Kansas City Center
08:59PM 39.2783 -94.5750 275° West 431 496 40,000  Level Kansas City Center
09:00PM 39.2889 -94.7506 274° West 437 503 40,000  Level Kansas City Center
09:02PM 39.2981 -94.9047 274° West 472 543 40,000  Level Kansas City Center
09:03PM 39.3092 -95.0778 275° West 436 502 40,000  Level Kansas City Center
09:04PM 39.3194 -95.2422 275° West 447 514 40,000  Level Kansas City Center
09:05PM 39.3289 -95.3994 274° West 444 511 40,000  Level Kansas City Center
09:06PM 39.3383 -95.5508 275° West 443 510 40,000  Level Kansas City Center
09:07PM 39.3478 -95.7272 274° West 443 510 40,000  Level Kansas City Center
09:08PM 39.3561 -95.8789 274° West 443 510 40,000  Level Kansas City Center
09:09PM 39.3658 -96.0564 274° West 444 511 40,000  Level Kansas City Center
09:10PM 39.3728 -96.2064 273° West 446 513 40,000  Level Kansas City Center
09:11PM 39.3811 -96.3664 274° West 447 514 40,000  Level Kansas City Center
09:12PM 39.3894 -96.5417 274° West 447 514 40,000  Level Kansas City Center
09:13PM 39.3972 -96.6939 274° West 446 513 40,000  Level Kansas City Center
09:14PM 39.4050 -96.8722 273° West 445 512 40,000  Level Kansas City Center
09:15PM 39.4119 -97.0261 273° West 447 514 40,000  Level Kansas City Center
09:16PM 39.4197 -97.1797 274° West 447 514 40,000  Level Kansas City Center
09:17PM 39.4278 -97.3597 273° West 448 516 40,000  Level Kansas City Center
09:18PM 39.4353 -97.5297 273° West 452 520 40,000  Level Kansas City Center
09:19PM 39.4411 -97.6833 273° West 451 519 40,000  Level Kansas City Center
09:20PM 39.4472 -97.8469 273° West 453 521 40,000  Level Kansas City Center
09:21PM 39.4544 -98.0317 273° West 449 517 40,000  Level Kansas City Center
09:22PM 39.4606 -98.1875 273° West 451 519 40,000  Level Kansas City Center
09:23PM 39.4653 -98.3686 272° West 457 526 40,000  Level Kansas City Center
09:25PM 39.4736 -98.5964 273° West 453 521 40,000  Level Kansas City Center
09:26PM 39.4783 -98.7586 272° West 451 519 40,000  Level Kansas City Center
09:27PM 39.4825 -98.9228 272° West 455 524 40,000  Level Kansas City Center
09:28PM 39.4881 -99.0872 273° West 456 525 40,000  Level Kansas City Center
09:29PM 39.4986 -99.2489 275° West 452 520 40,000  Level Kansas City Center
09:30PM 39.5122 -99.4750 275° West 451 519 40,000  Level Denver Center
09:31PM 39.5225 -99.6686 274° West 449 517 40,000  Level Denver Center
09:32PM 39.5311 -99.8306 274° West 450 518 40,000  Level Denver Center
09:33PM 39.5408 -100.0078 274° West 450 518 40,000  Level Denver Center
09:34PM 39.5486 -100.1650 274° West 456 525 40,000  Level Denver Center
09:35PM 39.5572 -100.3447 274° West 448 516 40,000  Level Denver Center
09:36PM 39.5656 -100.4986 274° West 447 514 40,000  Level Denver Center
09:37PM 39.5725 -100.6514 273° West 444 511 40,000  Level Denver Center
09:38PM 39.5806 -100.8311 273° West 446 513 40,000  Level Denver Center
09:39PM 39.5875 -100.9825 273° West 441 507 40,000  Level Denver Center
09:40PM 39.5958 -101.1603 274° West 443 510 40,000  Level Denver Center
09:41PM 39.6017 -101.3136 273° West 444 511 40,000  Level Denver Center
09:43PM 39.6075 -101.4408 273° West 443 510 40,000  Level Denver Center
09:44PM 39.6150 -101.6475 273° West 448 516 40,000  Level Denver Center
09:45PM 39.6197 -101.7997 272° West 443 510 40,000  Level Denver Center
09:46PM 39.6264 -101.9786 273° West 445 512 40,000  Level Denver Center
09:47PM 39.6319 -102.1322 273° West 445 512 40,000  Level Denver Center
09:48PM 39.6386 -102.3111 273° West 444 511 40,000  Level Denver Center
09:49PM 39.6433 -102.4656 272° West 447 514 40,000  Level Denver Center
09:50PM 39.6486 -102.6436 272° West 443 510 40,000  Level Denver Center
09:51PM 39.6525 -102.7758 272° West 446 513 40,000  Level Denver Center
09:52PM 39.6625 -102.9333 275° West 441 507 40,000  Level Denver Center
09:53PM 39.6950 -103.1192 283° West 442 509 40,000  Level Denver Center
09:54PM 39.7214 -103.2744 283° West 442 509 40,000  Level Denver Center
09:55PM 39.7489 -103.4292 283° West 442 509 40,000  Level Denver Center
09:56PM 39.7817 -103.6156 283° West 442 509 40,000  Level Denver Center
09:57PM 39.8153 -103.8044 283° West 453 521 40,000  Level Denver Center
09:58PM 39.8439 -103.9578 284° West 440 506 40,000 -360 Level Denver Center
09:59PM 39.8786 -104.1431 284° West 442 509 39,300 -1,260 Descending Denver Center
10:00PM 39.9086 -104.2981 284° West 445 512 37,400 -2,100 Descending Denver Center
10:01PM 39.9458 -104.4839 285° West 448 516 35,000 -1,680 Descending Denver Center
10:03PM 39.9769 -104.6397 285° West 452 520 34,000 -480 Descending Denver Center
10:04PM 40.0089 -104.8033 284° West 465 535 34,000  Level Denver Center
10:05PM 40.0408 -104.9942 282° West 453 521 34,000 -360 Level Denver Center
10:06PM 40.0636 -105.1553 281° West 452 520 33,300 -1,500 Descending Denver Center
10:07PM 40.0381 -105.3444 260° West 461 531 31,000 -2,100 Descending Denver Center
10:08PM 39.9961 -105.5044 251° West 467 537 29,000 -1,980 Descending Denver Center
10:09PM 39.9633 -105.6722 256° West 477 549 27,000 -1,500 Descending Denver Center
10:10PM 39.9194 -105.7978 246° West 484 557 26,000 -1,440 Descending Denver Center
10:11PM 39.8428 -105.9736 240° Southwest 472 543 24,100 -1,980 Descending Denver Center
10:12PM 39.7786 -106.1236 241° Southwest 477 549 22,000 -2,100 Descending Denver Center
10:13PM 39.7042 -106.2931 240° Southwest 475 547 19,800 -2,100 Descending Denver Center
10:14PM 39.6428 -106.4358 241° Southwest 455 524 17,700 -1,860 Descending Denver Center
10:15PM 39.5831 -106.5689 240° Southwest 440 506 16,000 -900 Descending Denver Center
10:16PM 39.5281 -106.7242 245° Southwest 428 493 15,900 -120 Descending Denver Center
10:17PM 39.5178 -106.8617 265° West 391 450 15,800 -780 Descending Denver Center
10:18PM 39.5056 -106.9767 262° West 311 358 14,400 -1,380 Descending Denver Center